TimePST,TemperatureF,Dew PointF,Humidity,Sea Level PressureIn,VisibilityMPH,Wind Direction,Wind SpeedMPH,Gust SpeedMPH,PrecipitationIn,Events,Conditions,WindDirDegrees,DateUTC
12:56 AM,53.1,41.0,64,30.08,10.0,West,6.9,-,N/A,,Clear,270,2012-11-22 08:56:00
1:56 AM,51.1,39.9,66,30.08,10.0,West,9.2,-,N/A,,Clear,260,2012-11-22 09:56:00
2:56 AM,48.9,39.9,71,30.09,10.0,West,5.8,-,N/A,,Clear,260,2012-11-22 10:56:00
3:56 AM,46.0,37.9,73,30.12,10.0,WNW,4.6,-,N/A,,Clear,300,2012-11-22 11:56:00
4:56 AM,42.1,36.0,79,30.14,9.0,NW,8.1,-,N/A,,Clear,320,2012-11-22 12:56:00
5:56 AM,43.0,37.9,82,30.17,8.0,NW,4.6,-,N/A,,Clear,310,2012-11-22 13:56:00
6:56 AM,39.0,35.1,86,30.19,8.0,West,5.8,-,N/A,,Clear,280,2012-11-22 14:56:00
7:56 AM,45.0,37.0,74,30.21,10.0,Calm,Calm,-,N/A,,Clear,0,2012-11-22 15:56:00
8:56 AM,52.0,41.0,66,30.22,10.0,Calm,Calm,-,N/A,,Clear,0,2012-11-22 16:56:00
9:56 AM,59.0,41.0,51,30.21,10.0,Calm,Calm,-,N/A,,Clear,0,2012-11-22 17:56:00
10:56 AM,64.0,39.9,41,30.19,10.0,NE,6.9,-,N/A,,Clear,40,2012-11-22 18:56:00
11:56 AM,66.9,36.0,32,30.16,10.0,NE,6.9,-,N/A,,Clear,40,2012-11-22 19:56:00
12:56 PM,70.0,33.1,26,30.14,10.0,ENE,9.2,-,N/A,,Clear,70,2012-11-22 20:56:00
1:56 PM,71.1,32.0,24,30.13,10.0,ENE,10.4,-,N/A,,Clear,70,2012-11-22 21:56:00
2:56 PM,72.0,30.9,22,30.13,10.0,ENE,12.7,-,N/A,,Clear,70,2012-11-22 22:56:00
3:56 PM,71.1,32.0,24,30.14,10.0,NE,8.1,-,N/A,,Clear,40,2012-11-22 23:56:00
4:56 PM,63.0,32.0,31,30.16,10.0,ENE,6.9,-,N/A,,Clear,60,2012-11-23 00:56:00
5:56 PM,57.9,30.9,36,30.18,10.0,ENE,4.6,-,N/A,,Clear,60,2012-11-23 01:56:00
6:56 PM,57.0,30.0,36,30.22,10.0,Calm,Calm,-,N/A,,Clear,0,2012-11-23 02:56:00
7:56 PM,51.1,28.0,41,30.23,10.0,Calm,Calm,-,N/A,,Clear,0,2012-11-23 03:56:00
8:56 PM,50.0,28.0,43,30.24,10.0,ESE,3.5,-,N/A,,Clear,110,2012-11-23 04:56:00
9:56 PM,44.1,24.1,45,30.25,10.0,Calm,Calm,-,N/A,,Clear,0,2012-11-23 05:56:00
10:56 PM,42.1,23.0,47,30.26,10.0,WNW,6.9,-,N/A,,Clear,300,2012-11-23 06:56:00
11:56 PM,41.0,24.1,51,30.26,10.0,West,6.9,-,N/A,,Clear,270,2012-11-23 07:56:00